sensor_id;sensor_type;location;lat;lon;timestamp;pressure;altitude;pressure_sealevel;temperature;humidity
48872;BME280;36154;51.674;7.824;2023-04-06T00:02:10;101057.97;;;20.57;41.70
48872;BME280;36154;51.674;7.824;2023-04-06T00:04:36;101056.28;;;20.56;41.66
48872;BME280;36154;51.674;7.824;2023-04-06T00:07:01;101051.94;;;20.57;41.63
48872;BME280;36154;51.674;7.824;2023-04-06T00:09:28;101056.28;;;20.56;41.71
48872;BME280;36154;51.674;7.824;2023-04-06T00:11:53;101051.94;;;20.57;41.71
48872;BME280;36154;51.674;7.824;2023-04-06T00:14:20;101045.91;;;20.56;41.71
48872;BME280;36154;51.674;7.824;2023-04-06T00:16:45;101051.09;;;20.56;41.78
48872;BME280;36154;51.674;7.824;2023-04-06T00:19:10;101044.22;;;20.55;41.69
48872;BME280;36154;51.674;7.824;2023-04-06T00:21:35;101042.50;;;20.54;41.85
48872;BME280;36154;51.674;7.824;2023-04-06T00:24:01;101045.94;;;20.55;41.79
48872;BME280;36154;51.674;7.824;2023-04-06T00:26:26;101042.50;;;20.54;41.62
48872;BME280;36154;51.674;7.824;2023-04-06T00:28:51;101032.16;;;20.54;41.69
48872;BME280;36154;51.674;7.824;2023-04-06T00:31:17;101042.50;;;20.54;41.85
48872;BME280;36154;51.674;7.824;2023-04-06T00:33:42;101038.22;;;20.53;41.78
48872;BME280;36154;51.674;7.824;2023-04-06T00:36:08;101030.44;;;20.53;41.79
48872;BME280;36154;51.674;7.824;2023-04-06T00:38:33;101037.34;;;20.54;41.86
48872;BME280;36154;51.674;7.824;2023-04-06T00:40:58;101027.00;;;20.53;41.76
48872;BME280;36154;51.674;7.824;2023-04-06T00:43:23;101028.75;;;20.52;41.86
48872;BME280;36154;51.674;7.824;2023-04-06T00:45:49;101033.03;;;20.53;41.80
48872;BME280;36154;51.674;7.824;2023-04-06T00:48:14;101023.59;;;20.52;41.93
48872;BME280;36154;51.674;7.824;2023-04-06T00:50:40;101024.44;;;20.53;41.86
48872;BME280;36154;51.674;7.824;2023-04-06T00:53:05;101013.22;;;20.52;42.00
48872;BME280;36154;51.674;7.824;2023-04-06T00:55:31;101013.22;;;20.52;41.85
48872;BME280;36154;51.674;7.824;2023-04-06T00:57:58;101008.94;;;20.51;41.90
48872;BME280;36154;51.674;7.824;2023-04-06T01:00:24;101007.19;;;20.52;41.78
48872;BME280;36154;51.674;7.824;2023-04-06T01:02:49;101012.38;;;20.50;42.01
48872;BME280;36154;51.674;7.824;2023-04-06T01:05:15;101004.63;;;20.50;41.96
48872;BME280;36154;51.674;7.824;2023-04-06T01:07:40;101001.16;;;20.51;41.94
48872;BME280;36154;51.674;7.824;2023-04-06T01:10:06;100994.28;;;20.50;41.84
48872;BME280;36154;51.674;7.824;2023-04-06T01:12:34;100986.50;;;20.50;41.93
48872;BME280;36154;51.674;7.824;2023-04-06T01:14:59;100986.50;;;20.50;41.87
48872;BME280;36154;51.674;7.824;2023-04-06T01:17:25;100987.41;;;20.49;41.89
48872;BME280;36154;51.674;7.824;2023-04-06T01:19:50;100994.28;;;20.50;41.72
48872;BME280;36154;51.674;7.824;2023-04-06T01:22:18;100985.69;;;20.48;41.89
48872;BME280;36154;51.674;7.824;2023-04-06T01:24:44;100979.66;;;20.49;41.88
48872;BME280;36154;51.674;7.824;2023-04-06T01:27:10;100980.53;;;20.48;41.84
48872;BME280;36154;51.674;7.824;2023-04-06T01:29:35;100981.41;;;20.48;41.81
48872;BME280;36154;51.674;7.824;2023-04-06T01:32:00;100984.81;;;20.49;41.94
48872;BME280;36154;51.674;7.824;2023-04-06T01:34:26;100975.34;;;20.48;41.91
48872;BME280;36154;51.674;7.824;2023-04-06T01:36:51;100970.16;;;20.48;41.97
48872;BME280;36154;51.674;7.824;2023-04-06T01:39:16;100966.72;;;20.47;41.98
48872;BME280;36154;51.674;7.824;2023-04-06T01:41:42;100965.00;;;20.48;41.80
48872;BME280;36154;51.674;7.824;2023-04-06T01:44:07;100959.81;;;20.48;41.95
48872;BME280;36154;51.674;7.824;2023-04-06T01:46:32;100955.50;;;20.48;41.56
48872;BME280;36154;51.674;7.824;2023-04-06T01:48:58;100958.13;;;20.47;41.88
48872;BME280;36154;51.674;7.824;2023-04-06T01:51:23;100957.22;;;20.46;41.80
48872;BME280;36154;51.674;7.824;2023-04-06T01:53:50;100956.38;;;20.46;41.98
48872;BME280;36154;51.674;7.824;2023-04-06T01:56:15;100946.03;;;20.46;41.98
48872;BME280;36154;51.674;7.824;2023-04-06T01:58:40;100947.78;;;20.47;41.82
48872;BME280;36154;51.674;7.824;2023-04-06T02:01:05;100951.22;;;20.46;41.91
48872;BME280;36154;51.674;7.824;2023-04-06T02:03:31;100959.84;;;20.45;41.84
48872;BME280;36154;51.674;7.824;2023-04-06T02:05:56;100954.66;;;20.45;41.98
48872;BME280;36154;51.674;7.824;2023-04-06T02:08:21;100953.78;;;20.46;41.86
48872;BME280;36154;51.674;7.824;2023-04-06T02:10:47;100954.66;;;20.45;41.94
48872;BME280;36154;51.674;7.824;2023-04-06T02:13:12;100956.38;;;20.46;41.99
48872;BME280;36154;51.674;7.824;2023-04-06T02:15:37;100954.66;;;20.45;41.94
48872;BME280;36154;51.674;7.824;2023-04-06T02:18:02;100946.91;;;20.45;41.83
48872;BME280;36154;51.674;7.824;2023-04-06T02:20:28;100952.09;;;20.45;41.89
48872;BME280;36154;51.674;7.824;2023-04-06T02:22:53;100946.94;;;20.43;41.80
48872;BME280;36154;51.674;7.824;2023-04-06T02:25:18;100947.81;;;20.44;41.85
48872;BME280;36154;51.674;7.824;2023-04-06T02:27:44;100952.13;;;20.43;41.95
48872;BME280;36154;51.674;7.824;2023-04-06T02:30:09;100950.41;;;20.44;42.38
48872;BME280;36154;51.674;7.824;2023-04-06T02:32:35;100950.44;;;20.42;41.95
48872;BME280;36154;51.674;7.824;2023-04-06T02:35:00;100947.81;;;20.44;42.15
48872;BME280;36154;51.674;7.824;2023-04-06T02:37:26;100948.69;;;20.43;41.83
48872;BME280;36154;51.674;7.824;2023-04-06T02:39:51;100947.84;;;20.42;42.06
48872;BME280;36154;51.674;7.824;2023-04-06T02:42:16;100947.84;;;20.42;41.96
48872;BME280;36154;51.674;7.824;2023-04-06T02:44:42;100948.72;;;20.41;41.93
48872;BME280;36154;51.674;7.824;2023-04-06T02:47:08;100945.25;;;20.42;42.06
48872;BME280;36154;51.674;7.824;2023-04-06T02:49:33;100940.13;;;20.41;42.01
48872;BME280;36154;51.674;7.824;2023-04-06T02:51:59;100947.88;;;20.41;41.91
48872;BME280;36154;51.674;7.824;2023-04-06T02:54:24;100940.16;;;20.39;42.05
48872;BME280;36154;51.674;7.824;2023-04-06T02:56:49;100942.69;;;20.41;42.18
48872;BME280;36154;51.674;7.824;2023-04-06T02:59:15;100942.69;;;20.41;41.93
48872;BME280;36154;51.674;7.824;2023-04-06T03:01:40;100936.69;;;20.40;41.95
48872;BME280;36154;51.674;7.824;2023-04-06T03:04:05;100935.81;;;20.40;41.95
48872;BME280;36154;51.674;7.824;2023-04-06T03:06:30;100936.69;;;20.40;41.81
48872;BME280;36154;51.674;7.824;2023-04-06T03:08:56;100940.16;;;20.39;42.00
48872;BME280;36154;51.674;7.824;2023-04-06T03:11:21;100939.31;;;20.39;41.85
48872;BME280;36154;51.674;7.824;2023-04-06T03:13:46;100939.31;;;20.39;41.87
48872;BME280;36154;51.674;7.824;2023-04-06T03:16:12;100935.91;;;20.37;41.91
48872;BME280;36154;51.674;7.824;2023-04-06T03:18:37;100935.03;;;20.36;41.97
48872;BME280;36154;51.674;7.824;2023-04-06T03:21:02;100936.72;;;20.39;41.96
48872;BME280;36154;51.674;7.824;2023-04-06T03:23:28;100927.25;;;20.38;41.95
48872;BME280;36154;51.674;7.824;2023-04-06T03:25:53;100937.59;;;20.38;41.89
48872;BME280;36154;51.674;7.824;2023-04-06T03:28:18;100929.84;;;20.38;41.95
48872;BME280;36154;51.674;7.824;2023-04-06T03:30:45;100937.59;;;20.38;41.86
48872;BME280;36154;51.674;7.824;2023-04-06T03:33:10;100937.59;;;20.38;41.88
48872;BME280;36154;51.674;7.824;2023-04-06T03:35:35;100941.94;;;20.37;41.96
48872;BME280;36154;51.674;7.824;2023-04-06T03:38:02;100937.59;;;20.38;41.90
48872;BME280;36154;51.674;7.824;2023-04-06T03:40:27;100935.00;;;20.38;41.95
48872;BME280;36154;51.674;7.824;2023-04-06T03:42:53;100935.03;;;20.36;41.86
48872;BME280;36154;51.674;7.824;2023-04-06T03:45:18;100940.22;;;20.36;42.04
48872;BME280;36154;51.674;7.824;2023-04-06T03:47:43;100933.34;;;20.35;41.87
48872;BME280;36154;51.674;7.824;2023-04-06T03:50:09;100934.19;;;20.36;41.92
48872;BME280;36154;51.674;7.824;2023-04-06T03:52:35;100933.31;;;20.37;41.98
48872;BME280;36154;51.674;7.824;2023-04-06T03:55:01;100941.13;;;20.35;41.88
48872;BME280;36154;51.674;7.824;2023-04-06T03:57:26;100935.03;;;20.36;41.77
48872;BME280;36154;51.674;7.824;2023-04-06T03:59:52;100940.25;;;20.35;41.89
48872;BME280;36154;51.674;7.824;2023-04-06T04:02:17;100932.47;;;20.35;41.81
48872;BME280;36154;51.674;7.824;2023-04-06T04:04:42;100939.38;;;20.36;42.03
48872;BME280;36154;51.674;7.824;2023-04-06T04:07:07;100939.38;;;20.36;42.00
48872;BME280;36154;51.674;7.824;2023-04-06T04:09:33;100942.81;;;20.36;42.03
48872;BME280;36154;51.674;7.824;2023-04-06T04:11:58;100941.97;;;20.36;41.91
48872;BME280;36154;51.674;7.824;2023-04-06T04:14:23;100942.84;;;20.35;41.91
48872;BME280;36154;51.674;7.824;2023-04-06T04:16:49;100939.38;;;20.36;41.97
48872;BME280;36154;51.674;7.824;2023-04-06T04:19:14;100939.38;;;20.36;41.88
48872;BME280;36154;51.674;7.824;2023-04-06T04:21:43;100941.94;;;20.37;41.99
48872;BME280;36154;51.674;7.824;2023-04-06T04:24:12;100937.59;;;20.38;41.98
48872;BME280;36154;51.674;7.824;2023-04-06T04:26:38;100946.19;;;20.38;42.00
48872;BME280;36154;51.674;7.824;2023-04-06T04:29:04;100943.63;;;20.38;41.85
48872;BME280;36154;51.674;7.824;2023-04-06T04:31:30;100942.78;;;20.38;41.79
48872;BME280;36154;51.674;7.824;2023-04-06T04:33:55;100945.31;;;20.39;41.83
48872;BME280;36154;51.674;7.824;2023-04-06T04:36:21;100941.00;;;20.40;41.52
48872;BME280;36154;51.674;7.824;2023-04-06T04:38:46;100941.00;;;20.40;41.79
48872;BME280;36154;51.674;7.824;2023-04-06T04:41:11;100935.81;;;20.40;41.86
48872;BME280;36154;51.674;7.824;2023-04-06T04:43:36;100936.69;;;20.40;41.74
48872;BME280;36154;51.674;7.824;2023-04-06T04:46:02;100942.69;;;20.41;42.19
48872;BME280;36154;51.674;7.824;2023-04-06T04:48:29;100940.94;;;20.41;42.44
48872;BME280;36154;51.674;7.824;2023-04-06T04:50:54;100940.91;;;20.43;42.66
48872;BME280;36154;51.674;7.824;2023-04-06T04:53:20;100940.91;;;20.43;42.72
48872;BME280;36154;51.674;7.824;2023-04-06T04:55:45;100940.91;;;20.43;42.63
48872;BME280;36154;51.674;7.824;2023-04-06T04:58:10;100936.59;;;20.43;42.86
48872;BME280;36154;51.674;7.824;2023-04-06T05:00:39;100940.91;;;20.43;42.91
48872;BME280;36154;51.674;7.824;2023-04-06T05:03:04;100940.03;;;20.44;43.11
48872;BME280;36154;51.674;7.824;2023-04-06T05:05:30;100942.63;;;20.44;43.28
48872;BME280;36154;51.674;7.824;2023-04-06T05:07:56;100934.88;;;20.44;43.22
48872;BME280;36154;51.674;7.824;2023-04-06T05:10:21;100934.00;;;20.43;43.01
48872;BME280;36154;51.674;7.824;2023-04-06T05:12:46;100936.59;;;20.43;43.13
48872;BME280;36154;51.674;7.824;2023-04-06T05:15:12;100938.34;;;20.43;43.11
48872;BME280;36154;51.674;7.824;2023-04-06T05:17:37;100941.75;;;20.43;43.13
48872;BME280;36154;51.674;7.824;2023-04-06T05:20:03;100936.59;;;20.43;43.19
48872;BME280;36154;51.674;7.824;2023-04-06T05:22:29;100940.88;;;20.44;43.10
48872;BME280;36154;51.674;7.824;2023-04-06T05:24:54;100940.91;;;20.43;43.05
48872;BME280;36154;51.674;7.824;2023-04-06T05:27:20;100938.34;;;20.43;43.17
48872;BME280;36154;51.674;7.824;2023-04-06T05:29:45;100935.75;;;20.43;43.19
48872;BME280;36154;51.674;7.824;2023-04-06T05:32:13;100930.56;;;20.43;43.16
48872;BME280;36154;51.674;7.824;2023-04-06T05:34:38;100940.91;;;20.43;43.12
48872;BME280;36154;51.674;7.824;2023-04-06T05:37:04;100935.75;;;20.43;43.09
48872;BME280;36154;51.674;7.824;2023-04-06T05:39:29;100935.75;;;20.43;43.00
48872;BME280;36154;51.674;7.824;2023-04-06T05:41:55;100928.88;;;20.42;42.92
48872;BME280;36154;51.674;7.824;2023-04-06T05:44:20;100939.19;;;20.43;42.96
48872;BME280;36154;51.674;7.824;2023-04-06T05:46:45;100927.97;;;20.43;42.88
48872;BME280;36154;51.674;7.824;2023-04-06T05:49:11;100929.72;;;20.42;43.02
48872;BME280;36154;51.674;7.824;2023-04-06T05:51:37;100931.47;;;20.42;43.05
48872;BME280;36154;51.674;7.824;2023-04-06T05:54:02;100929.78;;;20.39;43.06
48872;BME280;36154;51.674;7.824;2023-04-06T05:56:28;100929.72;;;20.42;42.96
48872;BME280;36154;51.674;7.824;2023-04-06T05:58:55;100937.50;;;20.42;42.83
48872;BME280;36154;51.674;7.824;2023-04-06T06:01:21;100930.56;;;20.43;42.92
48872;BME280;36154;51.674;7.824;2023-04-06T06:03:46;100928.88;;;20.42;42.76
48872;BME280;36154;51.674;7.824;2023-04-06T06:06:12;100927.16;;;20.42;42.69
48872;BME280;36154;51.674;7.824;2023-04-06T06:08:37;100927.19;;;20.41;42.87
48872;BME280;36154;51.674;7.824;2023-04-06T06:11:02;100930.59;;;20.41;42.93
48872;BME280;36154;51.674;7.824;2023-04-06T06:13:28;100930.59;;;20.41;42.76
48872;BME280;36154;51.674;7.824;2023-04-06T06:15:53;100928.03;;;20.41;42.86
48872;BME280;36154;51.674;7.824;2023-04-06T06:18:18;100928.88;;;20.42;42.92
48872;BME280;36154;51.674;7.824;2023-04-06T06:20:44;100935.75;;;20.43;42.92
48872;BME280;36154;51.674;7.824;2023-04-06T06:23:09;100927.19;;;20.41;42.86
48872;BME280;36154;51.674;7.824;2023-04-06T06:25:35;100931.50;;;20.40;42.84
48872;BME280;36154;51.674;7.824;2023-04-06T06:28:00;100929.75;;;20.41;42.78
48872;BME280;36154;51.674;7.824;2023-04-06T06:30:25;100932.34;;;20.41;42.72
48872;BME280;36154;51.674;7.824;2023-04-06T06:32:51;100933.19;;;20.41;42.78
48872;BME280;36154;51.674;7.824;2023-04-06T06:35:19;100929.75;;;20.41;42.57
48872;BME280;36154;51.674;7.824;2023-04-06T06:37:44;100932.34;;;20.41;42.64
48872;BME280;36154;51.674;7.824;2023-04-06T06:40:10;100931.50;;;20.40;42.69
48872;BME280;36154;51.674;7.824;2023-04-06T06:42:40;100932.34;;;20.41;42.70
48872;BME280;36154;51.674;7.824;2023-04-06T06:45:07;100932.34;;;20.41;42.58
48872;BME280;36154;51.674;7.824;2023-04-06T06:47:32;100933.19;;;20.41;42.71
48872;BME280;36154;51.674;7.824;2023-04-06T06:49:57;100933.19;;;20.41;42.65
48872;BME280;36154;51.674;7.824;2023-04-06T06:52:23;100926.31;;;20.42;42.64
48872;BME280;36154;51.674;7.824;2023-04-06T06:54:51;100923.72;;;20.42;42.71
48872;BME280;36154;51.674;7.824;2023-04-06T06:57:16;100928.03;;;20.41;42.57
48872;BME280;36154;51.674;7.824;2023-04-06T06:59:41;100928.88;;;20.42;42.54
48872;BME280;36154;51.674;7.824;2023-04-06T07:02:07;100924.59;;;20.41;42.61
48872;BME280;36154;51.674;7.824;2023-04-06T07:04:32;100922.84;;;20.41;42.38
48872;BME280;36154;51.674;7.824;2023-04-06T07:06:57;100920.28;;;20.40;42.53
48872;BME280;36154;51.674;7.824;2023-04-06T07:09:23;100918.53;;;20.42;42.67
48872;BME280;36154;51.674;7.824;2023-04-06T07:11:48;100918.53;;;20.42;42.60
48872;BME280;36154;51.674;7.824;2023-04-06T07:14:15;100913.34;;;20.42;42.54
48872;BME280;36154;51.674;7.824;2023-04-06T07:16:41;100918.53;;;20.42;42.63
48872;BME280;36154;51.674;7.824;2023-04-06T07:19:06;100918.53;;;20.42;42.59
48872;BME280;36154;51.674;7.824;2023-04-06T07:21:31;100910.78;;;20.42;42.64
48872;BME280;36154;51.674;7.824;2023-04-06T07:23:57;100908.19;;;20.42;43.04
48872;BME280;36154;51.674;7.824;2023-04-06T07:26:22;100910.78;;;20.42;42.55
48872;BME280;36154;51.674;7.824;2023-04-06T07:28:47;100907.38;;;20.38;42.62
48872;BME280;36154;51.674;7.824;2023-04-06T07:31:12;100908.19;;;20.42;42.62
48872;BME280;36154;51.674;7.824;2023-04-06T07:33:38;100908.19;;;20.42;42.48
48872;BME280;36154;51.674;7.824;2023-04-06T07:36:03;100908.19;;;20.42;42.64
48872;BME280;36154;51.674;7.824;2023-04-06T07:38:29;100902.13;;;20.41;42.49
48872;BME280;36154;51.674;7.824;2023-04-06T07:40:56;100904.69;;;20.43;42.45
48872;BME280;36154;51.674;7.824;2023-04-06T07:43:22;100903.00;;;20.42;42.61
48872;BME280;36154;51.674;7.824;2023-04-06T07:45:47;100903.00;;;20.42;42.57
48872;BME280;36154;51.674;7.824;2023-04-06T07:48:12;100899.50;;;20.43;42.62
48872;BME280;36154;51.674;7.824;2023-04-06T07:50:38;100903.84;;;20.42;42.60
48872;BME280;36154;51.674;7.824;2023-04-06T07:53:03;100903.00;;;20.42;42.44
48872;BME280;36154;51.674;7.824;2023-04-06T07:55:28;100902.09;;;20.43;42.50
48872;BME280;36154;51.674;7.824;2023-04-06T07:57:53;100899.50;;;20.43;42.43
48872;BME280;36154;51.674;7.824;2023-04-06T08:00:19;100901.22;;;20.44;42.47
48872;BME280;36154;51.674;7.824;2023-04-06T08:02:45;100899.50;;;20.43;42.46
48872;BME280;36154;51.674;7.824;2023-04-06T08:05:10;100904.69;;;20.43;42.53
48872;BME280;36154;51.674;7.824;2023-04-06T08:07:35;100899.50;;;20.43;42.59
48872;BME280;36154;51.674;7.824;2023-04-06T08:10:01;100893.50;;;20.42;42.64
48872;BME280;36154;51.674;7.824;2023-04-06T08:12:27;100897.84;;;20.42;42.50
48872;BME280;36154;51.674;7.824;2023-04-06T08:14:52;100893.47;;;20.44;42.73
48872;BME280;36154;51.674;7.824;2023-04-06T08:17:17;100897.72;;;20.45;42.66
48872;BME280;36154;51.674;7.824;2023-04-06T08:19:43;100899.50;;;20.43;42.45
48872;BME280;36154;51.674;7.824;2023-04-06T08:22:09;100896.94;;;20.43;42.67
48872;BME280;36154;51.674;7.824;2023-04-06T08:24:35;100899.47;;;20.44;42.42
48872;BME280;36154;51.674;7.824;2023-04-06T08:27:00;100896.06;;;20.44;42.36
48872;BME280;36154;51.674;7.824;2023-04-06T08:29:25;100896.94;;;20.43;42.54
48872;BME280;36154;51.674;7.824;2023-04-06T08:31:51;100897.72;;;20.45;42.52
48872;BME280;36154;51.674;7.824;2023-04-06T08:34:16;100900.31;;;20.45;42.61
48872;BME280;36154;51.674;7.824;2023-04-06T08:36:41;100890.88;;;20.44;42.37
48872;BME280;36154;51.674;7.824;2023-04-06T08:39:07;100896.06;;;20.44;42.58
48872;BME280;36154;51.674;7.824;2023-04-06T08:41:33;100890.88;;;20.44;42.59
48872;BME280;36154;51.674;7.824;2023-04-06T08:44:00;100890.88;;;20.44;42.48
48872;BME280;36154;51.674;7.824;2023-04-06T08:46:26;100896.06;;;20.44;42.79
48872;BME280;36154;51.674;7.824;2023-04-06T08:48:57;100889.97;;;20.45;42.71
48872;BME280;36154;51.674;7.824;2023-04-06T08:51:23;100882.19;;;20.45;42.66
48872;BME280;36154;51.674;7.824;2023-04-06T08:53:49;100881.38;;;20.44;42.58
48872;BME280;36154;51.674;7.824;2023-04-06T08:56:15;100879.66;;;20.43;42.51
48872;BME280;36154;51.674;7.824;2023-04-06T08:58:40;100887.38;;;20.45;42.59
48872;BME280;36154;51.674;7.824;2023-04-06T09:01:08;100877.94;;;20.44;42.53
48872;BME280;36154;51.674;7.824;2023-04-06T09:03:37;100872.72;;;20.45;42.57
48872;BME280;36154;51.674;7.824;2023-04-06T09:06:04;100878.75;;;20.46;42.67
48872;BME280;36154;51.674;7.824;2023-04-06T09:08:30;100889.09;;;20.46;42.74
48872;BME280;36154;51.674;7.824;2023-04-06T09:10:56;100882.19;;;20.45;42.60
48872;BME280;36154;51.674;7.824;2023-04-06T09:13:21;100882.19;;;20.45;42.71
48872;BME280;36154;51.674;7.824;2023-04-06T09:15:46;100883.06;;;20.45;42.59
48872;BME280;36154;51.674;7.824;2023-04-06T09:18:33;100878.75;;;20.46;42.68
48872;BME280;36154;51.674;7.824;2023-04-06T09:21:04;100868.38;;;20.46;42.68
48872;BME280;36154;51.674;7.824;2023-04-06T09:23:29;100880.50;;;20.45;42.69
48872;BME280;36154;51.674;7.824;2023-04-06T09:29:09;100868.41;;;20.44;42.55
48872;BME280;36154;51.674;7.824;2023-04-06T09:31:34;100862.47;;;20.41;42.61
48872;BME280;36154;51.674;7.824;2023-04-06T09:34:00;100875.34;;;20.44;42.51
48872;BME280;36154;51.674;7.824;2023-04-06T09:36:33;100866.69;;;20.45;42.22
48872;BME280;36154;51.674;7.824;2023-04-06T09:39:02;100858.91;;;20.45;42.65
48872;BME280;36154;51.674;7.824;2023-04-06T09:41:29;100860.63;;;20.46;42.79
48872;BME280;36154;51.674;7.824;2023-04-06T09:44:11;100858.03;;;20.46;42.55
48872;BME280;36154;51.674;7.824;2023-04-06T09:46:41;100860.63;;;20.46;42.74
48872;BME280;36154;51.674;7.824;2023-04-06T09:49:08;100858.03;;;20.46;42.28
48872;BME280;36154;51.674;7.824;2023-04-06T09:51:39;100848.53;;;20.46;42.71
48872;BME280;36154;51.674;7.824;2023-04-06T09:54:05;100852.84;;;20.46;42.53
48872;BME280;36154;51.674;7.824;2023-04-06T09:56:38;100852.84;;;20.46;42.77
48872;BME280;36154;51.674;7.824;2023-04-06T09:59:08;100858.03;;;20.46;42.61
48872;BME280;36154;51.674;7.824;2023-04-06T10:01:39;100849.44;;;20.47;42.54
48872;BME280;36154;51.674;7.824;2023-04-06T10:04:25;100845.94;;;20.48;42.73
48872;BME280;36154;51.674;7.824;2023-04-06T10:06:53;100849.44;;;20.47;42.71
48872;BME280;36154;51.674;7.824;2023-04-06T10:09:24;100841.66;;;20.47;42.75
48872;BME280;36154;51.674;7.824;2023-04-06T10:11:51;100844.25;;;20.47;42.75
48872;BME280;36154;51.674;7.824;2023-04-06T10:14:16;100841.66;;;20.47;42.59
48872;BME280;36154;51.674;7.824;2023-04-06T10:16:42;100838.16;;;20.46;42.66
48872;BME280;36154;51.674;7.824;2023-04-06T10:19:23;100838.16;;;20.46;42.71
48872;BME280;36154;51.674;7.824;2023-04-06T10:21:52;100837.34;;;20.46;42.71
48872;BME280;36154;51.674;7.824;2023-04-06T10:24:19;100839.06;;;20.45;42.50
48872;BME280;36154;51.674;7.824;2023-04-06T10:27:06;100839.94;;;20.44;42.69
48872;BME280;36154;51.674;7.824;2023-04-06T10:29:43;100838.25;;;20.43;42.81
48872;BME280;36154;51.674;7.824;2023-04-06T10:32:08;100847.75;;;20.43;42.77
48872;BME280;36154;51.674;7.824;2023-04-06T10:34:35;100843.50;;;20.42;42.72
48872;BME280;36154;51.674;7.824;2023-04-06T10:37:11;100840.03;;;20.41;42.72
48872;BME280;36154;51.674;7.824;2023-04-06T10:40:03;100832.25;;;20.41;42.64
48872;BME280;36154;51.674;7.824;2023-04-06T10:42:38;100828.84;;;20.41;42.79
48872;BME280;36154;51.674;7.824;2023-04-06T10:45:07;100834.00;;;20.41;42.82
48872;BME280;36154;51.674;7.824;2023-04-06T10:47:40;100834.00;;;20.41;42.68
48872;BME280;36154;51.674;7.824;2023-04-06T10:50:05;100834.84;;;20.41;42.67
48872;BME280;36154;51.674;7.824;2023-04-06T10:52:31;100827.97;;;20.42;42.78
48872;BME280;36154;51.674;7.824;2023-04-06T10:54:56;100822.78;;;20.42;42.75
48872;BME280;36154;51.674;7.824;2023-04-06T10:57:29;100825.38;;;20.42;42.83
48872;BME280;36154;51.674;7.824;2023-04-06T10:59:55;100834.84;;;20.41;42.94
48872;BME280;36154;51.674;7.824;2023-04-06T11:02:21;100837.41;;;20.43;42.74
48872;BME280;36154;51.674;7.824;2023-04-06T11:04:56;100825.38;;;20.42;42.72
48872;BME280;36154;51.674;7.824;2023-04-06T11:07:26;100821.88;;;20.43;42.72
48872;BME280;36154;51.674;7.824;2023-04-06T11:09:52;100824.44;;;20.44;43.03
48872;BME280;36154;51.674;7.824;2023-04-06T11:15:01;100823.59;;;20.44;42.71
48872;BME280;36154;51.674;7.824;2023-04-06T11:17:36;100825.25;;;20.45;42.72
48872;BME280;36154;51.674;7.824;2023-04-06T11:20:03;100822.69;;;20.45;42.73
48872;BME280;36154;51.674;7.824;2023-04-06T11:22:30;100816.63;;;20.46;42.74
48872;BME280;36154;51.674;7.824;2023-04-06T11:25:08;100816.69;;;20.43;42.74
48872;BME280;36154;51.674;7.824;2023-04-06T11:27:34;100812.28;;;20.46;42.73
48872;BME280;36154;51.674;7.824;2023-04-06T11:30:01;100818.38;;;20.47;42.65
48872;BME280;36154;51.674;7.824;2023-04-06T11:32:27;100816.59;;;20.49;42.66
48872;BME280;36154;51.674;7.824;2023-04-06T11:34:52;100811.41;;;20.49;42.77
48872;BME280;36154;51.674;7.824;2023-04-06T11:37:18;100807.91;;;20.50;42.79
48872;BME280;36154;51.674;7.824;2023-04-06T11:39:48;100800.16;;;20.50;42.63
48872;BME280;36154;51.674;7.824;2023-04-06T11:42:26;100800.16;;;20.50;42.71
48872;BME280;36154;51.674;7.824;2023-04-06T11:44:54;100798.44;;;20.51;42.61
48872;BME280;36154;51.674;7.824;2023-04-06T11:47:27;100792.34;;;20.52;42.27
48872;BME280;36154;51.674;7.824;2023-04-06T11:49:52;100789.72;;;20.53;42.50
48872;BME280;36154;51.674;7.824;2023-04-06T11:52:24;100798.34;;;20.54;42.40
48872;BME280;36154;51.674;7.824;2023-04-06T11:54:51;100788.84;;;20.54;42.51
48872;BME280;36154;51.674;7.824;2023-04-06T11:57:18;100783.59;;;20.57;42.51
48872;BME280;36154;51.674;7.824;2023-04-06T11:59:44;100790.44;;;20.58;42.49
48872;BME280;36154;51.674;7.824;2023-04-06T12:02:10;100786.94;;;20.61;42.48
48872;BME280;36154;51.674;7.824;2023-04-06T12:04:35;100796.41;;;20.62;42.40
48872;BME280;36154;51.674;7.824;2023-04-06T12:07:01;100797.22;;;20.64;42.31
48872;BME280;36154;51.674;7.824;2023-04-06T12:09:27;100801.47;;;20.65;42.32
48872;BME280;36154;51.674;7.824;2023-04-06T12:11:52;100791.13;;;20.65;42.38
48872;BME280;36154;51.674;7.824;2023-04-06T12:14:17;100789.41;;;20.65;42.36
48872;BME280;36154;51.674;7.824;2023-04-06T12:16:43;100785.91;;;20.66;42.41
48872;BME280;36154;51.674;7.824;2023-04-06T12:19:09;100784.19;;;20.67;42.30
48872;BME280;36154;51.674;7.824;2023-04-06T12:21:34;100786.75;;;20.68;42.33
48872;BME280;36154;51.674;7.824;2023-04-06T12:24:02;100783.28;;;20.68;41.93
48872;BME280;36154;51.674;7.824;2023-04-06T12:26:27;100786.75;;;20.68;42.23
48872;BME280;36154;51.674;7.824;2023-04-06T12:28:53;100784.97;;;20.71;42.34
48872;BME280;36154;51.674;7.824;2023-04-06T12:31:22;100779.78;;;20.71;42.28
48872;BME280;36154;51.674;7.824;2023-04-06T12:33:51;100778.88;;;20.72;42.23
48872;BME280;36154;51.674;7.824;2023-04-06T12:36:19;100773.69;;;20.72;42.33
48872;BME280;36154;51.674;7.824;2023-04-06T12:38:45;100780.59;;;20.73;42.34
48872;BME280;36154;51.674;7.824;2023-04-06T12:41:11;100776.25;;;20.73;42.28
48872;BME280;36154;51.674;7.824;2023-04-06T12:43:37;100774.53;;;20.74;42.21
48872;BME280;36154;51.674;7.824;2023-04-06T12:46:03;100771.03;;;20.75;42.20
48872;BME280;36154;51.674;7.824;2023-04-06T12:48:28;100776.16;;;20.76;42.15
48872;BME280;36154;51.674;7.824;2023-04-06T12:51:02;100769.22;;;20.77;42.05
48872;BME280;36154;51.674;7.824;2023-04-06T12:53:28;100776.13;;;20.78;42.18